Terminal Aerodrome Forecast
Issued by NWS

Home | Current Version | Previous Version | Text Only | Print | Product List | Glossary On
Versions: 1 2 3 4 5 6 7 8 9 10 11 12 13
500
FTUS42 KTBW 282322
TAFLAL
TAF
KLAL 282322Z 2900/2924 29005KT P6SM FEW100
     FM290400 VRB03KT P6SM SKC
      TEMPO 2909/2912 5SM BR
     FM291500 17004KT P6SM FEW040 FEW250
     FM292000 24005KT P6SM SCT050 SCT250
      AMD NOT SKED 2902/2911=

USA.gov is the U.S. government's official web portal to all federal, state and local government web resources and services.